Time;durP1;ratioP1;P1;durP2;ratioP2;P2;SDS_P1;SDS_P2;PMS_P1;PMS_P2;Temp;Humidity;BMP_temperature;BMP_pressure;BME280_temperature;BME280_humidity;BME280_pressure;Samples;Min_cycle;Max_cycle;Signal;HPM_P1;HPM_P2
2022/07/22 00:01:33;;;;;;;434.55;412.38;;;17.60;99.90;;;;;;5073595;28;20189;-78
2022/07/22 00:03:59;;;;;;;464.33;439.80;;;17.60;99.90;;;;;;5063362;28;20207;-78
2022/07/22 00:06:25;;;;;;;481.63;456.17;;;17.50;99.90;;;;;;5084616;28;20645;-78
2022/07/22 00:08:51;;;;;;;405.23;384.27;;;17.40;99.90;;;;;;5069327;28;20212;-78
2022/07/22 00:11:17;;;;;;;458.80;434.45;;;17.40;99.90;;;;;;5055952;28;20189;-78
2022/07/22 00:13:42;;;;;;;473.98;448.70;;;17.40;99.90;;;;;;5067850;28;20577;-79
2022/07/22 00:16:08;;;;;;;480.17;455.58;;;17.30;99.90;;;;;;5058844;28;20190;-79
2022/07/22 00:18:34;;;;;;;510.40;481.95;;;17.30;99.90;;;;;;5073048;28;20187;-78
2022/07/22 00:20:59;;;;;;;495.35;467.70;;;17.30;99.90;;;;;;5072993;28;20635;-78
2022/07/22 00:23:25;;;;;;;514.45;487.10;;;17.30;99.90;;;;;;5085810;28;20188;-78
2022/07/22 00:25:51;;;;;;;524.60;495.42;;;17.30;99.90;;;;;;5081475;28;20556;-78
2022/07/22 00:28:16;;;;;;;543.40;511.17;;;17.30;99.90;;;;;;5091788;28;20246;-77
2022/07/22 00:30:42;;;;;;;464.80;439.70;;;17.20;99.90;;;;;;5073867;28;20177;-79
2022/07/22 00:33:08;;;;;;;495.10;467.17;;;17.20;99.90;;;;;;5073375;28;20609;-79
2022/07/22 00:35:34;;;;;;;513.88;485.60;;;17.20;99.90;;;;;;5059552;28;20207;-79
2022/07/22 00:37:59;;;;;;;532.25;502.63;;;17.20;99.90;;;;;;5091594;28;20593;-78
2022/07/22 00:40:25;;;;;;;520.40;491.30;;;17.10;99.90;;;;;;5066979;28;20196;-79
2022/07/22 00:42:52;;;;;;;589.67;555.17;;;17.00;99.90;;;;;;5059958;28;20185;-79
2022/07/22 00:45:18;;;;;;;548.35;516.85;;;17.10;99.90;;;;;;5077881;28;20215;-79
2022/07/22 00:47:44;;;;;;;569.80;535.65;;;17.10;99.90;;;;;;5078553;28;20173;-79
2022/07/22 00:50:10;;;;;;;535.60;504.52;;;17.10;99.90;;;;;;5074176;28;20315;-78
2022/07/22 00:52:36;;;;;;;562.10;530.00;;;17.00;99.90;;;;;;5074057;28;20213;-77
2022/07/22 00:55:03;;;;;;;585.90;550.83;;;17.00;99.90;;;;;;5055690;28;20278;-79
2022/07/22 00:57:29;;;;;;;540.53;510.23;;;17.00;99.90;;;;;;5054870;28;20260;-79
2022/07/22 00:59:55;;;;;;;569.78;537.20;;;16.90;99.90;;;;;;5081698;28;20192;-78
2022/07/22 01:02:21;;;;;;;546.80;515.75;;;16.90;99.90;;;;;;5047787;28;20664;-79
2022/07/22 01:04:47;;;;;;;535.50;505.35;;;16.80;99.90;;;;;;5085179;28;20181;-79
2022/07/22 01:07:12;;;;;;;545.63;515.25;;;16.80;99.90;;;;;;5076739;28;20201;-79
2022/07/22 01:09:43;;;;;;;560.17;527.88;;;16.80;99.90;;;;;;5086849;28;20215;-79
2022/07/22 01:12:09;;;;;;;598.97;563.75;;;16.80;99.90;;;;;;5077190;28;20630;-79
2022/07/22 01:14:35;;;;;;;535.63;504.33;;;16.80;99.90;;;;;;5072321;28;20196;-79
2022/07/22 01:17:00;;;;;;;564.75;531.88;;;16.70;99.90;;;;;;5087913;28;20633;-79
2022/07/22 01:19:26;;;;;;;626.17;588.10;;;16.70;99.90;;;;;;5091033;28;20597;-79
2022/07/22 01:21:52;;;;;;;551.13;518.33;;;16.70;99.90;;;;;;5065564;28;20262;-79
2022/07/22 01:24:17;;;;;;;558.83;526.40;;;16.70;99.90;;;;;;5081494;28;20177;-79
2022/07/22 01:26:43;;;;;;;595.60;561.33;;;16.70;99.90;;;;;;5061590;28;20275;-79
2022/07/22 01:29:09;;;;;;;585.10;551.10;;;16.60;99.90;;;;;;5088226;28;20337;-79
2022/07/22 01:31:34;;;;;;;600.15;564.58;;;16.60;99.90;;;;;;5081214;28;20189;-78
2022/07/22 01:34:00;;;;;;;621.40;584.03;;;16.60;99.90;;;;;;5090147;28;20189;-78
2022/07/22 01:36:26;;;;;;;615.75;578.95;;;16.60;99.90;;;;;;5084848;28;20201;-79
2022/07/22 01:38:51;;;;;;;581.65;548.42;;;16.50;99.90;;;;;;5076090;28;20192;-79
2022/07/22 01:41:17;;;;;;;630.60;592.38;;;16.50;99.90;;;;;;5076302;28;20630;-79
2022/07/22 01:43:43;;;;;;;654.00;613.22;;;16.50;99.90;;;;;;5074425;28;20193;-79
2022/07/22 01:46:09;;;;;;;649.83;610.33;;;16.50;99.90;;;;;;5095042;28;20227;-79
2022/07/22 01:48:35;;;;;;;716.88;673.30;;;16.50;99.90;;;;;;5081896;28;20219;-79
2022/07/22 01:51:01;;;;;;;670.25;629.40;;;16.50;99.90;;;;;;5093786;28;20269;-79
2022/07/22 01:53:26;;;;;;;661.05;621.22;;;16.40;99.90;;;;;;5061082;28;20188;-79
2022/07/22 01:55:52;;;;;;;671.88;631.22;;;16.40;99.90;;;;;;5094885;28;20264;-79
2022/07/22 01:58:18;;;;;;;647.13;608.17;;;16.40;99.90;;;;;;5067581;28;20561;-79
2022/07/22 02:00:44;;;;;;;636.22;598.03;;;16.30;99.90;;;;;;5058244;28;20700;-78
2022/07/22 02:03:10;;;;;;;679.92;638.88;;;16.30;99.90;;;;;;5084650;28;20196;-78
2022/07/22 02:05:37;;;;;;;666.95;625.80;;;16.30;99.90;;;;;;5082218;28;20207;-79
2022/07/22 02:08:05;;;;;;;673.78;632.20;;;16.40;99.90;;;;;;5094662;28;20246;-79
2022/07/22 02:10:31;;;;;;;760.85;712.90;;;16.40;99.90;;;;;;5094239;28;20588;-78
2022/07/22 02:12:59;;;;;;;748.92;702.30;;;16.40;99.90;;;;;;5063540;28;20239;-79
2022/07/22 02:15:26;;;;;;;774.85;726.25;;;16.30;99.90;;;;;;5074176;28;20177;-78
2022/07/22 02:17:52;;;;;;;781.42;732.75;;;16.30;99.90;;;;;;5087796;28;20184;-79
2022/07/22 02:20:18;;;;;;;775.55;725.42;;;16.30;99.90;;;;;;5045661;28;20185;-79
2022/07/22 02:22:44;;;;;;;793.65;742.47;;;16.30;99.90;;;;;;5069562;28;20196;-79
2022/07/22 02:25:10;;;;;;;772.63;723.83;;;16.30;99.90;;;;;;5094473;28;20239;-79
2022/07/22 02:27:35;;;;;;;771.35;722.28;;;16.20;99.90;;;;;;5094476;28;20177;-79
2022/07/22 02:30:01;;;;;;;775.53;726.60;;;16.30;99.90;;;;;;5077721;28;20568;-79
2022/07/22 02:32:27;;;;;;;764.47;716.67;;;16.30;99.90;;;;;;5085041;28;20629;-79
2022/07/22 02:34:52;;;;;;;782.53;732.65;;;16.30;99.90;;;;;;5094666;28;20220;-78
2022/07/22 02:37:18;;;;;;;803.28;751.38;;;16.30;99.90;;;;;;5093615;28;20662;-79
2022/07/22 02:39:43;;;;;;;731.72;686.25;;;16.30;99.90;;;;;;5081223;28;20196;-79
2022/07/22 02:42:09;;;;;;;796.00;745.40;;;16.20;99.90;;;;;;5086674;28;20192;-79
2022/07/22 02:44:35;;;;;;;754.55;707.80;;;16.20;99.90;;;;;;5048243;28;20264;-79
2022/07/22 02:47:01;;;;;;;795.22;743.25;;;16.20;99.90;;;;;;5075153;28;20192;-78
2022/07/22 02:49:26;;;;;;;774.60;726.10;;;16.20;99.90;;;;;;5087429;28;20692;-79
2022/07/22 02:51:52;;;;;;;735.95;689.58;;;16.20;99.90;;;;;;5075397;28;20534;-79
2022/07/22 02:54:18;;;;;;;771.58;722.50;;;16.10;99.90;;;;;;5078223;28;20227;-78
2022/07/22 02:56:43;;;;;;;766.97;718.30;;;16.10;99.90;;;;;;5076184;28;20200;-79
2022/07/22 02:59:09;;;;;;;714.55;671.95;;;16.00;99.90;;;;;;5066458;28;20192;-79
2022/07/22 03:01:34;;;;;;;712.22;669.13;;;16.00;99.90;;;;;;5069947;28;20192;-78
2022/07/22 03:04:00;;;;;;;709.40;666.33;;;16.00;99.90;;;;;;5072274;28;20188;-79
2022/07/22 03:06:26;;;;;;;700.38;657.58;;;16.00;99.90;;;;;;5093621;28;20204;-79
2022/07/22 03:08:51;;;;;;;741.38;695.22;;;16.00;99.90;;;;;;5075126;28;20265;-78
2022/07/22 03:11:17;;;;;;;745.10;697.38;;;16.00;99.90;;;;;;5075985;28;20274;-77
2022/07/22 03:13:43;;;;;;;732.58;686.78;;;15.90;99.90;;;;;;5080965;28;20192;-79
2022/07/22 03:16:09;;;;;;;747.08;700.70;;;15.90;99.90;;;;;;5074968;28;20593;-79
2022/07/22 03:18:35;;;;;;;765.50;715.92;;;15.90;99.90;;;;;;5075108;28;20534;-79
2022/07/22 03:21:00;;;;;;;754.67;707.20;;;15.90;99.90;;;;;;5083277;28;20642;-79
2022/07/22 03:23:26;;;;;;;705.47;662.83;;;15.90;99.90;;;;;;5085912;28;20197;-78
2022/07/22 03:25:52;;;;;;;688.25;647.25;;;15.90;99.90;;;;;;5093446;28;20184;-79
2022/07/22 03:28:17;;;;;;;739.40;692.65;;;15.80;99.90;;;;;;5073702;28;20622;-78
2022/07/22 03:30:43;;;;;;;756.95;708.55;;;15.80;99.90;;;;;;5083165;28;20272;-79
2022/07/22 03:33:09;;;;;;;748.13;701.55;;;15.70;99.90;;;;;;5059166;28;20185;-79
2022/07/22 03:35:34;;;;;;;719.72;675.67;;;15.70;99.90;;;;;;5091946;28;20181;-79
2022/07/22 03:38:00;;;;;;;744.60;699.60;;;15.80;99.90;;;;;;5074564;28;20196;-79
2022/07/22 03:40:25;;;;;;;706.08;662.85;;;15.80;99.90;;;;;;5087366;28;20668;-79
2022/07/22 03:42:51;;;;;;;713.80;670.38;;;15.70;99.90;;;;;;5063984;28;20189;-74
2022/07/22 03:45:17;;;;;;;692.72;651.20;;;15.60;99.90;;;;;;5073510;28;20196;-79
2022/07/22 03:47:43;;;;;;;659.60;620.95;;;15.60;99.90;;;;;;5082626;28;20263;-79
2022/07/22 03:50:09;;;;;;;631.55;594.42;;;15.60;99.90;;;;;;5074268;28;20603;-78
2022/07/22 03:52:34;;;;;;;671.15;630.67;;;15.50;99.90;;;;;;5092711;28;20235;-79
2022/07/22 03:55:01;;;;;;;700.67;658.72;;;15.50;99.90;;;;;;5092454;28;20185;-79
2022/07/22 03:57:28;;;;;;;674.08;633.95;;;15.50;99.90;;;;;;5090248;28;20189;-79
2022/07/22 03:59:54;;;;;;;701.08;659.13;;;15.60;99.90;;;;;;5052370;28;20184;-78
2022/07/22 04:02:20;;;;;;;709.58;666.67;;;15.60;99.90;;;;;;5091374;28;20185;-78
2022/07/22 04:04:45;;;;;;;698.95;656.78;;;15.60;99.90;;;;;;5074365;28;20219;-78
2022/07/22 04:07:11;;;;;;;695.38;652.53;;;15.60;99.90;;;;;;5051617;28;20204;-79
2022/07/22 04:09:37;;;;;;;673.75;633.35;;;15.60;99.90;;;;;;5069399;28;20209;-78
2022/07/22 04:12:03;;;;;;;704.90;661.85;;;15.70;99.90;;;;;;5044086;28;20201;-79
2022/07/22 04:14:28;;;;;;;737.38;691.92;;;15.70;99.90;;;;;;5069582;28;20645;-79
2022/07/22 04:16:54;;;;;;;772.40;722.70;;;15.70;99.90;;;;;;5058316;28;20188;-79
2022/07/22 04:19:19;;;;;;;728.22;683.75;;;15.80;99.90;;;;;;5084585;28;20192;-78
2022/07/22 04:21:45;;;;;;;718.80;674.22;;;15.70;99.90;;;;;;5086125;28;20189;-79
2022/07/22 04:24:11;;;;;;;694.53;652.58;;;15.80;99.90;;;;;;5077863;28;20609;-79
2022/07/22 04:26:37;;;;;;;729.88;684.70;;;15.80;99.90;;;;;;5079339;28;20530;-79
2022/07/22 04:29:04;;;;;;;724.50;679.38;;;15.80;99.90;;;;;;5066364;28;20213;-79
2022/07/22 04:31:29;;;;;;;703.60;660.20;;;15.80;99.90;;;;;;5086694;28;20188;-79
2022/07/22 04:33:55;;;;;;;727.58;683.00;;;15.80;99.90;;;;;;5074424;28;20189;-79
2022/07/22 04:36:21;;;;;;;706.78;663.53;;;15.90;99.90;;;;;;5092075;28;20661;-78
2022/07/22 04:38:46;;;;;;;691.10;649.40;;;16.00;99.90;;;;;;5074226;28;20275;-79
2022/07/22 04:41:12;;;;;;;710.22;667.38;;;16.10;99.90;;;;;;5070341;28;20283;-79
2022/07/22 04:43:38;;;;;;;685.25;642.60;;;16.20;99.90;;;;;;5071570;28;20198;-79
2022/07/22 04:46:03;;;;;;;627.85;590.20;;;16.30;99.90;;;;;;5074613;28;20192;-79
2022/07/22 04:48:29;;;;;;;678.75;638.25;;;16.50;99.90;;;;;;5073483;28;20217;-79
2022/07/22 04:50:59;;;;;;;650.60;612.20;;;16.60;99.90;;;;;;5063091;28;20185;-78
2022/07/22 04:53:25;;;;;;;575.30;543.33;;;16.60;99.90;;;;;;5077986;28;20184;-79
2022/07/22 04:55:50;;;;;;;594.88;560.85;;;16.70;99.90;;;;;;5087734;28;20177;-79
2022/07/22 04:58:16;;;;;;;619.17;581.70;;;16.80;99.90;;;;;;5074401;28;20242;-79
2022/07/22 05:00:41;;;;;;;544.30;514.03;;;16.80;99.90;;;;;;5056186;28;20186;-79
2022/07/22 05:03:08;;;;;;;496.00;469.70;;;16.70;99.90;;;;;;5062157;28;20196;-79
2022/07/22 05:05:34;;;;;;;512.33;484.10;;;16.80;99.90;;;;;;5077678;28;20569;-79
2022/07/22 05:07:59;;;;;;;457.92;432.95;;;16.90;99.90;;;;;;5075573;28;20185;-79
2022/07/22 05:10:25;;;;;;;418.70;397.60;;;16.80;99.90;;;;;;5077839;28;20327;-78
2022/07/22 05:12:52;;;;;;;413.83;392.48;;;16.90;99.90;;;;;;5067834;28;20191;-79
2022/07/22 05:15:17;;;;;;;412.48;391.67;;;16.90;99.90;;;;;;5078913;28;20544;-78
2022/07/22 05:17:43;;;;;;;406.42;386.42;;;16.90;99.90;;;;;;5074271;28;20187;-79
2022/07/22 05:20:10;;;;;;;372.48;354.63;;;16.90;99.90;;;;;;5042420;28;20283;-78
2022/07/22 05:22:35;;;;;;;389.13;369.00;;;17.10;99.90;;;;;;5062844;28;20264;-79
2022/07/22 05:25:01;;;;;;;360.02;342.92;;;17.00;99.90;;;;;;5080310;28;20293;-78
2022/07/22 05:27:27;;;;;;;333.23;316.85;;;17.00;99.90;;;;;;5083267;28;20200;-79
2022/07/22 05:29:52;;;;;;;370.25;351.45;;;16.90;99.90;;;;;;5061253;28;20217;-79
2022/07/22 05:32:18;;;;;;;355.77;338.55;;;16.80;99.90;;;;;;5065814;28;20593;-78
2022/07/22 05:34:44;;;;;;;385.60;366.30;;;16.90;99.90;;;;;;5076598;28;20727;-75
2022/07/22 05:37:10;;;;;;;366.27;348.85;;;17.10;99.90;;;;;;5088818;28;20220;-79
2022/07/22 05:39:35;;;;;;;381.40;362.63;;;17.30;99.90;;;;;;5088190;28;20185;-79
2022/07/22 05:42:01;;;;;;;342.33;324.77;;;17.10;99.90;;;;;;5064646;28;20193;-78
2022/07/22 05:44:27;;;;;;;368.15;350.08;;;17.40;99.90;;;;;;5072522;28;20182;-80
2022/07/22 05:46:52;;;;;;;390.83;371.58;;;17.50;99.90;;;;;;5068366;28;20585;-79
2022/07/22 05:49:19;;;;;;;373.13;353.88;;;17.60;99.90;;;;;;5091697;28;20240;-78
2022/07/22 05:51:45;;;;;;;344.42;328.15;;;17.60;99.90;;;;;;5091648;28;20208;-78
2022/07/22 05:54:11;;;;;;;357.50;339.55;;;17.70;99.90;;;;;;5073597;28;20577;-79
2022/07/22 05:56:36;;;;;;;357.02;339.35;;;17.70;99.90;;;;;;5064726;28;20220;-79
2022/07/22 05:59:02;;;;;;;391.23;371.15;;;17.80;99.90;;;;;;5075583;28;20182;-79
2022/07/22 06:01:28;;;;;;;335.15;318.90;;;17.90;99.90;;;;;;5091690;28;20263;-78
2022/07/22 06:03:53;;;;;;;373.75;353.88;;;17.90;99.90;;;;;;5073207;28;20612;-77
2022/07/22 06:06:19;;;;;;;371.67;353.00;;;18.00;99.90;;;;;;5094097;28;20201;-76
2022/07/22 06:08:45;;;;;;;406.80;386.60;;;18.10;99.90;;;;;;5083082;28;20221;-79
2022/07/22 06:11:10;;;;;;;310.73;296.08;;;18.20;99.90;;;;;;5088287;28;20181;-78
2022/07/22 06:13:37;;;;;;;394.33;374.40;;;18.30;99.90;;;;;;5084592;28;20330;-79
2022/07/22 06:16:03;;;;;;;365.85;347.90;;;18.60;99.90;;;;;;5080107;28;20176;-78
2022/07/22 06:18:29;;;;;;;407.23;385.75;;;18.70;99.90;;;;;;5078422;28;20539;-78
2022/07/22 06:20:55;;;;;;;347.33;329.08;;;18.70;99.90;;;;;;5094408;28;20188;-78
2022/07/22 06:23:24;;;;;;;356.15;338.45;;;18.70;99.90;;;;;;5059106;28;20538;-79
2022/07/22 06:25:49;;;;;;;381.45;362.77;;;18.90;99.90;;;;;;5083166;28;20213;-79
2022/07/22 06:28:15;;;;;;;397.60;377.33;;;19.30;99.90;;;;;;5092006;28;20258;-78
2022/07/22 06:30:41;;;;;;;391.73;372.08;;;19.50;99.90;;;;;;5075313;28;20177;-78
2022/07/22 06:33:07;;;;;;;404.52;384.42;;;19.70;99.90;;;;;;5071353;28;20208;-78
2022/07/22 06:35:33;;;;;;;405.63;385.40;;;19.70;99.90;;;;;;5080867;28;20196;-79
2022/07/22 06:37:58;;;;;;;416.35;396.30;;;19.90;99.90;;;;;;5089555;28;20609;-77
2022/07/22 06:40:24;;;;;;;420.95;396.95;;;20.00;99.90;;;;;;5085683;28;20705;-73
2022/07/22 06:42:49;;;;;;;400.88;382.20;;;20.10;99.90;;;;;;5081363;28;20189;-75
2022/07/22 06:45:15;;;;;;;429.25;406.77;;;20.00;99.90;;;;;;5060340;28;20232;-75
2022/07/22 06:47:41;;;;;;;420.25;398.08;;;20.00;99.90;;;;;;5083263;28;20192;-73
2022/07/22 06:50:08;;;;;;;441.10;417.20;;;20.30;99.90;;;;;;5069146;28;20692;-68
2022/07/22 06:52:33;;;;;;;442.92;418.67;;;20.40;99.90;;;;;;5051743;28;20189;-70
2022/07/22 06:54:59;;;;;;;456.42;432.60;;;20.50;99.90;;;;;;5075004;28;20191;-73
2022/07/22 06:57:25;;;;;;;467.05;441.30;;;20.20;99.90;;;;;;5062837;28;20215;-73
2022/07/22 06:59:50;;;;;;;467.73;441.98;;;20.20;99.90;;;;;;5056981;28;20215;-72
2022/07/22 07:02:16;;;;;;;443.83;420.33;;;20.20;99.90;;;;;;5052988;28;20242;-73
2022/07/22 07:04:42;;;;;;;474.40;449.90;;;20.40;99.90;;;;;;5084666;28;20650;-70
2022/07/22 07:07:08;;;;;;;495.45;469.48;;;20.80;99.90;;;;;;5087967;28;20290;-73
2022/07/22 07:09:34;;;;;;;508.17;479.80;;;21.00;99.90;;;;;;5072714;28;20212;-72
2022/07/22 07:12:00;;;;;;;559.53;521.72;;;21.00;99.90;;;;;;5074548;28;20192;-73
2022/07/22 07:14:25;;;;;;;714.15;657.75;;;20.90;99.90;;;;;;5086820;28;20219;-73
2022/07/22 07:16:51;;;;;;;692.25;637.80;;;21.00;99.90;;;;;;5063199;28;20185;-73
2022/07/22 07:19:17;;;;;;;737.42;678.25;;;21.10;99.90;;;;;;5088475;28;20271;-72
2022/07/22 07:21:42;;;;;;;739.08;680.38;;;21.10;99.90;;;;;;5060979;28;20279;-72
2022/07/22 07:24:08;;;;;;;723.70;661.08;;;21.30;99.90;;;;;;5059150;28;20189;-71
2022/07/22 07:26:34;;;;;;;635.17;573.85;;;21.60;99.90;;;;;;5069034;28;20584;-72
2022/07/22 07:28:59;;;;;;;560.97;504.80;;;21.60;99.90;;;;;;5067795;28;20292;-70
2022/07/22 07:31:25;;;;;;;588.80;530.08;;;21.90;99.90;;;;;;5073971;28;20867;-72
2022/07/22 07:33:51;;;;;;;467.50;410.95;;;22.10;99.90;;;;;;5082991;28;20208;-71
2022/07/22 07:36:16;;;;;;;444.63;401.08;;;21.90;99.90;;;;;;5073750;28;20191;-74
2022/07/22 07:38:42;;;;;;;257.13;212.52;;;22.20;99.90;;;;;;5065245;28;20184;-74
2022/07/22 07:41:08;;;;;;;1999.90;999.90;;;22.10;99.90;;;;;;5063344;28;20303;-72
2022/07/22 07:43:34;;;;;;;1999.90;999.90;;;21.80;99.90;;;;;;5055388;28;20280;-72
2022/07/22 07:46:00;;;;;;;1999.90;999.90;;;21.90;99.90;;;;;;5043625;28;20201;-72
2022/07/22 07:48:26;;;;;;;1999.90;999.90;;;21.80;99.90;;;;;;5069277;28;20685;-73
2022/07/22 07:50:52;;;;;;;1999.90;999.90;;;21.70;99.90;;;;;;5085018;28;20689;-71
2022/07/22 07:53:18;;;;;;;1999.90;999.90;;;22.00;99.90;;;;;;5085965;28;20191;-73
2022/07/22 07:55:44;;;;;;;1999.90;999.90;;;21.80;99.90;;;;;;5083456;28;20196;-72
2022/07/22 07:58:10;;;;;;;1999.90;999.90;;;21.90;99.90;;;;;;5073658;28;20189;-72
2022/07/22 08:00:36;;;;;;;1999.90;999.90;;;22.00;99.90;;;;;;5065180;28;20192;-74
2022/07/22 08:03:03;;;;;;;1999.90;999.90;;;22.00;99.90;;;;;;5069152;28;20193;-75
2022/07/22 08:05:29;;;;;;;1999.90;999.90;;;21.70;99.90;;;;;;5079870;28;20235;-71
2022/07/22 08:07:55;;;;;;;1999.90;999.90;;;21.80;99.90;;;;;;5074817;28;20193;-71
2022/07/22 08:10:21;;;;;;;1999.90;999.90;;;21.90;99.90;;;;;;5061198;28;20212;-71
2022/07/22 08:12:48;;;;;;;1999.90;999.90;;;22.00;99.90;;;;;;5065763;28;20547;-68
2022/07/22 08:15:14;;;;;;;1999.90;999.90;;;22.00;99.90;;;;;;5057848;28;20442;-67
2022/07/22 08:17:39;;;;;;;1999.90;999.90;;;21.50;99.90;;;;;;5084162;28;20203;-67
2022/07/22 08:20:06;;;;;;;1999.90;999.90;;;21.40;99.90;;;;;;5079143;28;20189;-67
2022/07/22 08:22:32;;;;;;;1999.90;999.90;;;21.20;99.90;;;;;;5083544;28;20192;-67
2022/07/22 08:24:57;;;;;;;1999.90;999.90;;;21.10;99.90;;;;;;5088987;28;20184;-67
2022/07/22 08:27:23;;;;;;;1999.90;999.90;;;21.50;99.90;;;;;;5062998;28;20189;-78
2022/07/22 08:29:49;;;;;;;1999.90;999.90;;;22.00;99.90;;;;;;5058069;28;20213;-76
2022/07/22 08:32:15;;;;;;;1999.90;999.90;;;22.50;99.90;;;;;;5061604;28;20189;-79
2022/07/22 08:34:41;;;;;;;1999.90;999.90;;;22.60;99.90;;;;;;5060007;28;20182;-76
2022/07/22 08:37:06;;;;;;;1999.90;999.90;;;23.10;99.90;;;;;;5047714;28;20212;-76
2022/07/22 08:39:33;;;;;;;1999.90;999.90;;;23.80;99.90;;;;;;5079381;28;20219;-76
2022/07/22 08:42:00;;;;;;;1999.90;999.90;;;24.00;99.90;;;;;;5054665;28;20259;-79
2022/07/22 08:44:32;;;;;;;1999.90;999.90;;;24.20;99.90;;;;;;5083057;28;20223;-74
2022/07/22 08:46:59;;;;;;;1999.90;999.90;;;24.40;99.90;;;;;;5074981;28;20231;-74
2022/07/22 08:49:25;;;;;;;1999.90;999.90;;;24.70;99.90;;;;;;5083541;28;20220;-74
2022/07/22 08:51:51;;;;;;;1999.90;999.90;;;25.60;99.90;;;;;;5077814;28;20248;-75
2022/07/22 08:54:17;;;;;;;1413.97;999.90;;;25.10;99.90;;;;;;5073126;28;20394;-75
2022/07/22 08:56:47;;;;;;;1364.45;999.90;;;25.00;99.90;;;;;;5068659;28;20188;-74
2022/07/22 08:59:13;;;;;;;1370.40;999.90;;;24.80;99.90;;;;;;5073318;28;20188;-75
2022/07/22 09:02:17;;;;;;;1323.07;999.90;;;25.00;99.90;;;;;;5060984;28;20268;-76
2022/07/22 09:04:53;;;;;;;1327.75;999.90;;;25.60;99.90;;;;;;5058375;28;20187;-77
2022/07/22 09:07:30;;;;;;;1298.68;999.90;;;26.10;99.90;;;;;;5075175;28;20222;-77
2022/07/22 09:09:57;;;;;;;1150.10;999.90;;;25.90;99.90;;;;;;5083740;28;20235;-77
2022/07/22 09:12:23;;;;;;;1033.72;958.35;;;25.90;99.90;;;;;;5080682;28;20660;-76
2022/07/22 09:14:51;;;;;;;854.67;799.47;;;25.70;99.90;;;;;;5073594;28;20633;-76
2022/07/22 09:17:28;;;;;;;685.08;642.83;;;26.80;99.90;;;;;;5091161;28;20223;-77
2022/07/22 09:19:59;;;;;;;583.88;549.63;;;26.40;99.90;;;;;;5085460;28;20176;-77
2022/07/22 09:22:41;;;;;;;495.08;466.88;;;26.00;99.90;;;;;;5073104;28;20188;-76
2022/07/22 09:25:28;;;;;;;531.45;501.55;;;25.50;99.90;;;;;;5069818;28;20573;-77
2022/07/22 09:28:08;;;;;;;504.70;476.23;;;25.30;99.90;;;;;;5084276;28;20195;-76
2022/07/22 09:30:41;;;;;;;465.00;437.85;;;25.70;99.90;;;;;;5085307;28;20566;-77
2022/07/22 09:33:08;;;;;;;461.90;435.77;;;25.70;99.90;;;;;;5081511;28;20210;-76
2022/07/22 09:35:34;;;;;;;436.83;412.98;;;25.50;99.90;;;;;;5076346;28;20177;-77
2022/07/22 09:38:06;;;;;;;434.95;410.25;;;25.80;99.90;;;;;;5090468;28;20206;-77
2022/07/22 09:40:37;;;;;;;375.38;355.20;;;25.90;99.90;;;;;;5085580;28;20191;-76
2022/07/22 09:43:05;;;;;;;404.27;382.55;;;26.00;99.90;;;;;;5083586;28;20184;-77
2022/07/22 09:45:32;;;;;;;498.50;471.75;;;25.90;99.90;;;;;;5079906;28;20249;-78
2022/07/22 09:48:00;;;;;;;590.53;555.50;;;26.10;99.90;;;;;;5075277;28;20616;-77
2022/07/22 09:50:30;;;;;;;482.83;456.58;;;25.60;99.90;;;;;;5089079;28;20656;-77
2022/07/22 09:52:57;;;;;;;516.03;487.65;;;24.60;99.90;;;;;;5085169;28;20520;-77
2022/07/22 09:55:25;;;;;;;554.75;523.80;;;25.00;99.90;;;;;;5072997;28;20196;-73
2022/07/22 09:57:52;;;;;;;585.83;548.42;;;25.20;99.90;;;;;;5087956;28;20259;-77
2022/07/22 10:00:26;;;;;;;606.22;572.92;;;24.80;99.90;;;;;;5093691;28;20252;-76
2022/07/22 10:02:58;;;;;;;684.13;645.30;;;25.00;99.90;;;;;;5082712;28;20179;-74
2022/07/22 10:05:30;;;;;;;691.20;649.97;;;25.60;99.90;;;;;;5075529;28;20271;-75
2022/07/22 10:07:56;;;;;;;601.28;565.65;;;26.20;99.90;;;;;;5064518;28;20229;-76
2022/07/22 10:10:25;;;;;;;532.47;503.02;;;26.10;99.90;;;;;;5090706;28;20220;-78
2022/07/22 10:12:52;;;;;;;585.47;553.08;;;25.30;99.90;;;;;;5085099;28;20713;-75
2022/07/22 10:15:19;;;;;;;664.70;627.75;;;25.00;99.90;;;;;;5088677;28;20215;-76
2022/07/22 10:17:50;;;;;;;697.78;656.40;;;25.10;99.90;;;;;;5083960;28;20191;-76
2022/07/22 10:20:21;;;;;;;734.28;691.00;;;25.10;99.90;;;;;;5075384;28;20208;-76
2022/07/22 10:22:58;;;;;;;752.95;707.88;;;25.20;99.90;;;;;;5060982;28;20193;-76
2022/07/22 10:25:26;;;;;;;722.78;679.63;;;25.10;99.90;;;;;;5080262;28;20180;-75
2022/07/22 10:27:58;;;;;;;771.55;724.80;;;24.80;99.90;;;;;;5073985;28;20277;-75
2022/07/22 10:30:27;;;;;;;846.78;792.85;;;24.30;99.90;;;;;;5088881;28;20212;-76
2022/07/22 10:33:14;;;;;;;853.08;798.75;;;23.90;99.90;;;;;;5078733;28;20760;-72
2022/07/22 10:35:42;;;;;;;923.30;862.20;;;24.00;99.90;;;;;;5080959;28;20689;-76
2022/07/22 10:38:10;;;;;;;859.25;803.58;;;24.20;99.90;;;;;;5093120;28;20191;-76
2022/07/22 10:40:58;;;;;;;842.75;788.65;;;24.60;99.90;;;;;;5085989;28;20184;-76
2022/07/22 10:43:28;;;;;;;778.53;730.80;;;25.20;99.90;;;;;;5083980;28;20184;-76
2022/07/22 10:45:56;;;;;;;841.10;788.17;;;25.10;99.90;;;;;;5087044;28;20181;-76
2022/07/22 10:48:36;;;;;;;758.78;712.95;;;25.50;99.90;;;;;;5075242;28;20208;-76
2022/07/22 10:51:23;;;;;;;814.85;764.35;;;25.50;99.90;;;;;;5090481;28;20180;-76
2022/07/22 10:53:53;;;;;;;751.92;706.78;;;25.60;99.90;;;;;;5079388;28;20255;-76
2022/07/22 10:56:29;;;;;;;771.03;724.13;;;25.10;99.90;;;;;;5093999;28;20185;-76
2022/07/22 10:58:54;;;;;;;628.80;592.38;;;25.10;99.90;;;;;;5084199;28;20183;-76
2022/07/22 11:01:24;;;;;;;742.33;696.40;;;25.50;99.90;;;;;;5069525;28;20181;-75
2022/07/22 11:03:51;;;;;;;627.63;592.00;;;25.70;99.90;;;;;;5068880;28;20188;-75
2022/07/22 11:06:29;;;;;;;677.92;639.35;;;24.90;99.90;;;;;;5080680;28;20656;-74
2022/07/22 11:09:05;;;;;;;783.17;734.10;;;24.90;99.90;;;;;;5079382;28;20247;-74
2022/07/22 11:11:38;;;;;;;813.35;763.22;;;25.10;99.90;;;;;;5085834;28;20183;-75
2022/07/22 11:14:21;;;;;;;917.47;856.33;;;24.80;99.90;;;;;;5075959;28;20177;-75
2022/07/22 11:16:49;;;;;;;968.30;902.50;;;24.90;99.90;;;;;;5087133;28;20264;-75
2022/07/22 11:19:19;;;;;;;1067.50;990.47;;;24.50;99.90;;;;;;5086874;28;20188;-75
2022/07/22 11:21:53;;;;;;;1082.38;998.63;;;24.30;99.90;;;;;;5079538;28;20189;-75
2022/07/22 11:24:20;;;;;;;1085.68;999.90;;;24.20;99.90;;;;;;5093064;28;20184;-74
2022/07/22 11:26:49;;;;;;;1119.18;999.90;;;24.60;99.90;;;;;;5074685;28;20188;-74
2022/07/22 11:29:25;;;;;;;1104.75;999.90;;;24.70;99.90;;;;;;5088905;28;20208;-74
2022/07/22 11:31:52;;;;;;;1123.22;999.90;;;24.20;99.90;;;;;;5088894;28;20180;-75
2022/07/22 11:34:18;;;;;;;1105.40;999.90;;;24.30;99.90;;;;;;5075705;28;20181;-74
2022/07/22 11:36:45;;;;;;;1138.28;999.90;;;24.20;99.90;;;;;;5065895;28;20661;-74
2022/07/22 11:39:12;;;;;;;1105.72;999.90;;;24.20;99.90;;;;;;5089932;28;20325;-74
2022/07/22 11:41:39;;;;;;;1130.78;999.90;;;24.30;99.90;;;;;;5073755;28;20193;-74
2022/07/22 11:44:06;;;;;;;1152.57;999.90;;;23.90;99.90;;;;;;5073701;28;20274;-74
2022/07/22 11:46:36;;;;;;;1176.07;999.90;;;23.90;99.90;;;;;;5091463;28;20620;-73
2022/07/22 11:49:02;;;;;;;1195.07;999.90;;;24.10;99.90;;;;;;5088029;28;20617;-74
2022/07/22 11:51:30;;;;;;;1164.07;999.90;;;24.40;99.90;;;;;;5066112;28;20191;-74
2022/07/22 11:53:57;;;;;;;1125.22;999.90;;;24.90;99.90;;;;;;5060224;28;20177;-74
2022/07/22 11:56:23;;;;;;;1060.80;982.95;;;24.80;99.90;;;;;;5055990;28;20259;-74
2022/07/22 11:58:53;;;;;;;992.05;922.45;;;24.70;99.90;;;;;;5055162;28;20185;-75
2022/07/22 12:01:20;;;;;;;1018.50;946.35;;;24.40;99.90;;;;;;5066346;28;20181;-74
2022/07/22 12:03:52;;;;;;;1005.22;934.40;;;24.50;99.90;;;;;;5073333;28;20630;-74
2022/07/22 12:06:19;;;;;;;930.75;867.65;;;24.50;99.90;;;;;;5065587;28;20189;-75